createdAt,value
2023-02-23T00:02:21.626Z,94.57
2023-02-23T00:04:50.017Z,95.22
2023-02-23T00:07:20.567Z,93.62
2023-02-23T00:09:49.002Z,92.01
2023-02-23T00:12:17.550Z,92.42
2023-02-23T00:14:47.609Z,92.26
2023-02-23T00:17:17.701Z,92.49
2023-02-23T00:19:49.434Z,92.41
2023-02-23T00:22:18.512Z,92.45
2023-02-23T00:24:47.929Z,92.29
2023-02-23T00:27:21.001Z,92.43
2023-02-23T00:29:51.786Z,92.07
2023-02-23T00:32:21.052Z,92.55
2023-02-23T00:34:50.494Z,92.67
2023-02-23T00:37:19.556Z,93.06
2023-02-23T00:39:50.027Z,92.60
2023-02-23T00:42:18.463Z,92.90
2023-02-23T00:44:48.793Z,93.16
2023-02-23T00:47:18.611Z,93.31
2023-02-23T00:49:46.976Z,93.47
2023-02-23T00:52:15.565Z,93.46
2023-02-23T00:54:44.129Z,93.58
2023-02-23T00:57:12.600Z,92.99
2023-02-23T00:59:41.049Z,93.17
2023-02-23T01:02:09.516Z,93.18
2023-02-23T01:04:39.408Z,93.02
2023-02-23T01:07:07.919Z,92.78
2023-02-23T01:09:36.321Z,93.17
2023-02-23T01:12:07.527Z,93.48
2023-02-23T01:14:38.111Z,93.55
2023-02-23T01:17:07.472Z,94.25
2023-02-23T01:19:39.080Z,94.46
2023-02-23T01:22:07.477Z,94.80
2023-02-23T01:24:36.062Z,94.72
2023-02-23T01:27:06.578Z,94.43
2023-02-23T01:29:35.729Z,94.58
2023-02-23T01:32:04.964Z,94.34
2023-02-23T01:34:33.547Z,94.82
2023-02-23T01:37:04.621Z,95.32
2023-02-23T01:39:34.377Z,96.04
2023-02-23T01:42:05.398Z,96.00
2023-02-23T01:45:21.199Z,96.42
2023-02-23T01:47:49.920Z,97.79
2023-02-23T01:50:19.883Z,99.26
2023-02-23T01:52:53.469Z,99.04
2023-02-23T01:55:24.455Z,100.00
2023-02-23T01:58:02.972Z,100.00
2023-02-23T02:00:36.532Z,100.00
2023-02-23T02:03:14.093Z,100.00
2023-02-23T02:05:43.155Z,100.00
2023-02-23T02:08:13.939Z,100.00
2023-02-23T02:10:47.070Z,100.00
2023-02-23T02:13:24.833Z,100.00
2023-02-23T02:16:39.048Z,100.00
2023-02-23T02:19:45.393Z,100.00
2023-02-23T02:22:45.300Z,100.00
2023-02-23T02:25:58.885Z,100.00
2023-02-23T02:29:34.648Z,100.00
2023-02-23T02:33:05.870Z,100.00
2023-02-23T02:36:06.036Z,100.00
2023-02-23T02:38:54.006Z,100.00
2023-02-23T02:41:35.556Z,100.00
2023-02-23T02:44:15.207Z,100.00
2023-02-23T02:46:49.067Z,100.00
2023-02-23T02:49:27.666Z,100.00
2023-02-23T02:52:02.579Z,100.00
2023-02-23T02:54:38.679Z,100.00
2023-02-23T02:57:09.806Z,100.00
2023-02-23T03:00:06.847Z,100.00
2023-02-23T03:02:56.647Z,100.00
2023-02-23T03:05:47.937Z,100.00
2023-02-23T03:08:42.043Z,100.00
2023-02-23T03:11:31.238Z,100.00
2023-02-23T03:14:39.351Z,100.00
2023-02-23T03:17:38.558Z,100.00
2023-02-23T03:20:34.031Z,100.00
2023-02-23T03:23:29.742Z,100.00
2023-02-23T03:26:25.890Z,100.00
2023-02-23T03:29:29.996Z,100.00
2023-02-23T03:32:26.587Z,100.00
2023-02-23T03:35:19.929Z,100.00
2023-02-23T03:38:12.767Z,100.00
2023-02-23T03:41:02.134Z,100.00
2023-02-23T03:43:54.229Z,100.00
2023-02-23T03:46:44.524Z,100.00
2023-02-23T03:49:32.410Z,100.00
2023-02-23T03:52:24.940Z,100.00
2023-02-23T03:55:17.284Z,100.00
2023-02-23T03:58:07.696Z,100.00
2023-02-23T04:00:58.888Z,100.00
2023-02-23T04:03:47.653Z,100.00
2023-02-23T04:06:36.127Z,100.00
2023-02-23T04:09:26.162Z,100.00
2023-02-23T04:12:18.864Z,100.00
2023-02-23T04:14:54.394Z,100.00
2023-02-23T04:17:26.519Z,100.00
2023-02-23T04:19:57.023Z,100.00
2023-02-23T04:22:25.752Z,100.00
2023-02-23T04:24:54.162Z,100.00
2023-02-23T04:27:22.616Z,100.00
2023-02-23T04:29:51.327Z,100.00
2023-02-23T04:32:21.319Z,100.00
2023-02-23T04:34:49.842Z,100.00
2023-02-23T04:37:19.582Z,100.00
2023-02-23T04:39:50.211Z,100.00
2023-02-23T04:42:19.301Z,100.00
2023-02-23T04:44:47.944Z,100.00
2023-02-23T04:47:17.462Z,100.00
2023-02-23T04:49:46.030Z,100.00
2023-02-23T04:52:14.381Z,100.00
2023-02-23T04:54:44.191Z,100.00
2023-02-23T04:57:12.534Z,100.00
2023-02-23T04:59:40.859Z,100.00
2023-02-23T05:02:09.462Z,100.00
2023-02-23T05:04:37.930Z,100.00
2023-02-23T05:07:06.721Z,100.00
2023-02-23T05:09:35.163Z,100.00
2023-02-23T05:12:05.494Z,100.00
2023-02-23T05:14:33.877Z,100.00
2023-02-23T05:17:02.293Z,100.00
2023-02-23T05:19:30.844Z,100.00
2023-02-23T05:21:59.135Z,100.00
2023-02-23T05:24:30.281Z,100.00
2023-02-23T05:26:58.893Z,100.00
2023-02-23T05:29:28.690Z,100.00
2023-02-23T05:31:57.231Z,100.00
2023-02-23T05:34:26.353Z,100.00
2023-02-23T05:36:55.411Z,100.00
2023-02-23T05:39:23.836Z,100.00
2023-02-23T05:41:52.585Z,100.00
2023-02-23T05:44:21.066Z,100.00
2023-02-23T05:46:50.835Z,100.00
2023-02-23T05:49:19.229Z,100.00
2023-02-23T05:51:47.654Z,100.00
2023-02-23T05:54:16.114Z,100.00
2023-02-23T05:56:44.690Z,100.00
2023-02-23T05:59:13.499Z,100.00
2023-02-23T06:01:42.160Z,100.00
2023-02-23T06:04:12.426Z,100.00
2023-02-23T06:06:41.164Z,100.00
2023-02-23T06:09:09.724Z,100.00
2023-02-23T06:11:38.168Z,100.00
2023-02-23T06:14:06.638Z,100.00
2023-02-23T06:16:35.390Z,100.00
2023-02-23T06:19:03.937Z,100.00
2023-02-23T06:21:34.138Z,100.00
2023-02-23T06:24:02.622Z,100.00
2023-02-23T06:26:31.100Z,100.00
2023-02-23T06:28:59.503Z,100.00
2023-02-23T06:31:27.960Z,100.00
2023-02-23T06:33:56.711Z,100.00
2023-02-23T06:36:25.136Z,100.00
2023-02-23T06:38:58.036Z,100.00
2023-02-23T06:41:27.272Z,100.00
2023-02-23T06:43:55.669Z,100.00
2023-02-23T06:46:24.720Z,100.00
2023-02-23T06:48:56.943Z,100.00
2023-02-23T06:51:25.530Z,100.00
2023-02-23T06:53:55.232Z,100.00
2023-02-23T06:56:23.730Z,100.00
2023-02-23T06:58:52.072Z,100.00
2023-02-23T07:01:21.326Z,100.00
2023-02-23T07:03:49.875Z,100.00
2023-02-23T07:06:18.468Z,100.00
2023-02-23T07:08:46.809Z,100.00
2023-02-23T07:11:18.930Z,100.00
2023-02-23T07:13:47.480Z,100.00
2023-02-23T07:16:16.420Z,100.00
2023-02-23T07:18:44.873Z,100.00
2023-02-23T07:21:13.196Z,100.00
2023-02-23T07:23:41.568Z,100.00
2023-02-23T07:26:09.991Z,100.00
2023-02-23T07:28:39.768Z,100.00
2023-02-23T07:31:08.230Z,100.00
2023-02-23T07:33:36.756Z,100.00
2023-02-23T07:36:06.039Z,100.00
2023-02-23T07:38:35.263Z,100.00
2023-02-23T07:41:03.702Z,100.00
2023-02-23T07:43:32.202Z,100.00
2023-02-23T07:46:03.107Z,100.00
2023-02-23T07:48:31.498Z,100.00
2023-02-23T07:50:59.863Z,100.00
2023-02-23T07:53:28.400Z,100.00
2023-02-23T07:56:00.872Z,100.00
2023-02-23T07:58:30.625Z,100.00
2023-02-23T08:00:59.479Z,100.00
2023-02-23T08:03:29.646Z,100.00
2023-02-23T08:05:58.130Z,100.00
2023-02-23T08:08:27.135Z,100.00
2023-02-23T08:11:02.021Z,100.00
2023-02-23T08:13:31.906Z,100.00
2023-02-23T08:16:00.575Z,100.00
2023-02-23T08:18:30.466Z,100.00
2023-02-23T08:21:03.024Z,100.00
2023-02-23T08:23:32.113Z,100.00
2023-02-23T08:26:01.286Z,100.00
2023-02-23T08:28:30.892Z,100.00
2023-02-23T08:31:00.056Z,100.00
2023-02-23T08:33:31.748Z,100.00
2023-02-23T08:36:02.791Z,100.00
2023-02-23T08:38:31.390Z,100.00
2023-02-23T08:41:02.240Z,100.00
2023-02-23T08:43:30.993Z,100.00
2023-02-23T08:45:59.630Z,100.00
2023-02-23T08:48:29.680Z,100.00
2023-02-23T08:50:59.124Z,100.00
2023-02-23T08:53:29.737Z,100.00
2023-02-23T08:56:00.649Z,100.00
2023-02-23T08:58:30.691Z,100.00
2023-02-23T09:00:59.470Z,100.00
2023-02-23T09:03:30.799Z,100.00
2023-02-23T09:06:05.695Z,100.00
2023-02-23T09:08:34.189Z,100.00
2023-02-23T09:11:02.584Z,100.00
2023-02-23T09:13:31.033Z,100.00
2023-02-23T09:16:00.389Z,100.00
2023-02-23T09:18:30.769Z,100.00
2023-02-23T09:20:59.156Z,100.00
2023-02-23T09:23:29.778Z,100.00
2023-02-23T09:25:58.145Z,100.00
2023-02-23T09:28:31.191Z,100.00
2023-02-23T09:30:59.793Z,100.00
2023-02-23T09:33:29.826Z,100.00
2023-02-23T09:35:58.334Z,100.00
2023-02-23T09:38:26.885Z,100.00
2023-02-23T09:40:57.285Z,100.00
2023-02-23T09:43:33.565Z,100.00
2023-02-23T09:46:15.393Z,100.00
2023-02-23T09:48:45.340Z,100.00
2023-02-23T09:51:20.886Z,100.00
2023-02-23T09:53:53.575Z,100.00
2023-02-23T09:56:31.750Z,100.00
2023-02-23T09:59:01.830Z,100.00
2023-02-23T10:02:06.776Z,100.00
2023-02-23T10:04:42.659Z,100.00
2023-02-23T10:07:19.607Z,100.00
2023-02-23T10:10:04.593Z,100.00
2023-02-23T10:12:43.928Z,100.00
2023-02-23T10:15:24.593Z,100.00
2023-02-23T10:18:06.670Z,100.00
2023-02-23T10:20:48.686Z,100.00
2023-02-23T10:23:23.252Z,100.00
2023-02-23T10:25:56.130Z,100.00
2023-02-23T10:28:25.114Z,100.00
2023-02-23T10:30:56.326Z,100.00
2023-02-23T10:33:33.876Z,100.00
2023-02-23T10:36:15.018Z,100.00
2023-02-23T10:38:43.609Z,100.00
2023-02-23T10:41:14.852Z,100.00
2023-02-23T10:43:43.708Z,100.00
2023-02-23T10:46:20.313Z,100.00
2023-02-23T10:48:50.057Z,100.00
2023-02-23T10:51:27.318Z,100.00
2023-02-23T10:53:55.720Z,100.00
2023-02-23T10:56:25.471Z,100.00
2023-02-23T10:58:56.534Z,100.00
2023-02-23T11:02:00.489Z,100.00
2023-02-23T11:04:34.860Z,100.00
2023-02-23T11:07:18.319Z,100.00
2023-02-23T11:09:48.364Z,100.00
2023-02-23T11:12:22.918Z,100.00
2023-02-23T11:14:53.923Z,100.00
2023-02-23T11:17:33.384Z,100.00
2023-02-23T11:20:27.052Z,100.00
2023-02-23T11:23:03.663Z,100.00
2023-02-23T11:25:38.808Z,100.00
2023-02-23T11:28:07.366Z,99.95
2023-02-23T11:30:43.031Z,99.73
2023-02-23T11:33:19.203Z,99.62
2023-02-23T11:35:47.934Z,98.95
2023-02-23T11:38:24.809Z,98.67
2023-02-23T11:41:04.865Z,98.19
2023-02-23T11:43:33.429Z,96.88
2023-02-23T11:46:03.585Z,96.83
2023-02-23T11:48:35.835Z,94.93
2023-02-23T11:51:05.147Z,91.42
2023-02-23T11:53:40.195Z,88.77
2023-02-23T11:56:11.163Z,84.87
2023-02-23T11:58:44.588Z,81.77
2023-02-23T12:01:16.985Z,82.22
2023-02-23T12:03:48.949Z,81.03
2023-02-23T12:06:31.085Z,79.04
2023-02-23T12:09:13.145Z,77.67
2023-02-23T12:11:50.093Z,78.18
2023-02-23T12:14:30.520Z,78.17
2023-02-23T12:17:05.250Z,78.86
2023-02-23T12:19:38.288Z,80.48
2023-02-23T12:22:13.297Z,79.95
2023-02-23T12:24:50.399Z,81.65
2023-02-23T12:27:25.645Z,82.47
2023-02-23T12:30:15.988Z,83.92
2023-02-23T12:32:51.362Z,83.61
2023-02-23T12:35:25.095Z,83.56
2023-02-23T12:38:01.194Z,85.38
2023-02-23T12:40:35.898Z,86.66
2023-02-23T12:43:15.417Z,85.85
2023-02-23T12:45:50.523Z,85.98
2023-02-23T12:48:34.457Z,87.08
2023-02-23T12:51:10.590Z,87.14
2023-02-23T12:53:43.126Z,87.56
2023-02-23T12:56:35.667Z,87.89
2023-02-23T12:59:42.417Z,88.00
2023-02-23T13:02:18.129Z,87.97
2023-02-23T13:05:15.817Z,88.86
2023-02-23T13:08:01.822Z,87.99
2023-02-23T13:10:48.809Z,89.31
2023-02-23T13:13:31.852Z,87.92
2023-02-23T13:16:09.154Z,88.07
2023-02-23T13:18:46.678Z,88.83
2023-02-23T13:21:23.807Z,88.31
2023-02-23T13:24:03.562Z,88.38
2023-02-23T13:26:42.213Z,87.10
2023-02-23T13:29:22.435Z,86.81
2023-02-23T13:31:51.419Z,86.77
2023-02-23T13:34:29.219Z,86.88
2023-02-23T13:36:59.807Z,86.60
2023-02-23T13:40:02.160Z,86.21
2023-02-23T13:42:48.274Z,86.62
2023-02-23T13:45:37.702Z,85.98
2023-02-23T13:48:20.267Z,85.83
2023-02-23T13:50:56.612Z,85.92
2023-02-23T13:53:40.931Z,85.48
2023-02-23T13:56:11.732Z,84.67
2023-02-23T13:58:48.970Z,84.45
2023-02-23T14:01:25.230Z,84.51
2023-02-23T14:03:59.691Z,84.30
2023-02-23T14:06:31.635Z,84.43
2023-02-23T14:09:08.821Z,84.75
2023-02-23T14:11:47.204Z,83.25
2023-02-23T14:14:43.425Z,82.52
2023-02-23T14:17:59.622Z,82.32
2023-02-23T14:20:52.779Z,81.80
2023-02-23T14:23:36.843Z,80.46
2023-02-23T14:26:19.164Z,80.61
2023-02-23T14:28:50.418Z,81.23
2023-02-23T14:31:25.262Z,80.44
2023-02-23T14:34:02.018Z,80.22
2023-02-23T14:36:44.197Z,80.26
2023-02-23T14:39:21.018Z,80.07
2023-02-23T14:41:54.268Z,79.94
2023-02-23T14:44:30.917Z,79.88
2023-02-23T14:47:05.496Z,79.40
2023-02-23T14:49:40.401Z,79.44
2023-02-23T14:52:13.414Z,79.50
2023-02-23T14:54:42.833Z,79.68
2023-02-23T14:57:21.079Z,80.27
2023-02-23T14:59:58.376Z,80.15
2023-02-23T15:02:29.691Z,80.27
2023-02-23T15:04:59.770Z,80.37
2023-02-23T15:07:33.461Z,80.63
2023-02-23T15:10:02.881Z,81.17
2023-02-23T15:12:37.976Z,80.50
2023-02-23T15:15:21.392Z,80.60
2023-02-23T15:17:55.114Z,80.11
2023-02-23T15:20:32.613Z,80.06
2023-02-23T15:23:04.756Z,79.79
2023-02-23T15:25:39.819Z,80.39
2023-02-23T15:28:25.361Z,79.98
2023-02-23T15:30:55.972Z,79.73
2023-02-23T15:33:28.450Z,80.50
2023-02-23T15:36:08.863Z,80.47
2023-02-23T15:38:44.544Z,81.09
2023-02-23T15:41:25.805Z,80.52
2023-02-23T15:43:54.414Z,80.62
2023-02-23T15:46:28.021Z,81.16
2023-02-23T15:49:03.331Z,80.75
2023-02-23T15:51:38.434Z,80.78
2023-02-23T15:54:14.078Z,79.99
2023-02-23T15:56:46.817Z,80.15
2023-02-23T15:59:23.734Z,79.58
2023-02-23T16:01:55.278Z,79.63
2023-02-23T16:04:30.336Z,80.25
2023-02-23T16:07:17.105Z,79.59
2023-02-23T16:09:53.052Z,79.61
2023-02-23T16:12:25.212Z,79.86
2023-02-23T16:14:57.068Z,79.64
2023-02-23T16:17:30.530Z,79.06
2023-02-23T16:20:15.744Z,79.40
2023-02-23T16:22:47.040Z,78.88
2023-02-23T16:25:18.188Z,78.25
2023-02-23T16:27:48.870Z,78.62
2023-02-23T16:30:23.421Z,78.80
2023-02-23T16:33:08.361Z,77.80
2023-02-23T16:35:41.894Z,77.88
2023-02-23T16:38:21.928Z,77.66
2023-02-23T16:40:50.395Z,79.00
2023-02-23T16:43:18.820Z,78.08
2023-02-23T16:45:47.668Z,78.05
2023-02-23T16:48:17.428Z,78.33
2023-02-23T16:50:47.804Z,78.55
2023-02-23T16:53:18.101Z,78.38
2023-02-23T16:55:53.096Z,78.56
2023-02-23T16:58:24.775Z,78.87
2023-02-23T17:00:53.717Z,78.97
2023-02-23T17:03:26.638Z,79.38
2023-02-23T17:05:55.713Z,79.41
2023-02-23T17:08:26.213Z,79.95
2023-02-23T17:10:55.956Z,81.73
2023-02-23T17:13:26.775Z,81.60
2023-02-23T17:15:57.291Z,82.00
2023-02-23T17:18:28.198Z,82.12
2023-02-23T17:20:59.422Z,82.64
2023-02-23T17:23:38.476Z,82.64
2023-02-23T17:26:09.298Z,82.49
2023-02-23T17:28:38.253Z,82.46
2023-02-23T17:31:08.241Z,82.39
2023-02-23T17:33:37.789Z,82.67
2023-02-23T17:36:09.923Z,82.66
2023-02-23T17:38:39.809Z,83.00
2023-02-23T17:41:10.691Z,83.68
2023-02-23T17:43:39.265Z,83.89
2023-02-23T17:46:07.892Z,84.44
2023-02-23T17:48:36.548Z,84.22
2023-02-23T17:51:09.170Z,83.79
2023-02-23T17:53:39.779Z,83.75
2023-02-23T17:56:09.444Z,83.90
2023-02-23T17:58:43.418Z,84.38
2023-02-23T18:01:23.858Z,84.73
2023-02-23T18:03:52.654Z,84.96
2023-02-23T18:06:21.218Z,85.62
2023-02-23T18:08:51.011Z,85.92
2023-02-23T18:11:19.882Z,86.17
2023-02-23T18:13:51.400Z,86.31
2023-02-23T18:16:22.871Z,86.18
2023-02-23T18:18:51.392Z,86.33
2023-02-23T18:21:23.231Z,86.69
2023-02-23T18:23:56.476Z,86.96
2023-02-23T18:26:25.881Z,87.13
2023-02-23T18:28:55.950Z,86.85
2023-02-23T18:31:28.037Z,87.15
2023-02-23T18:33:57.098Z,87.31
2023-02-23T18:36:28.695Z,87.24
2023-02-23T18:39:00.887Z,87.29
2023-02-23T18:41:30.951Z,87.00
2023-02-23T18:44:00.015Z,87.49
2023-02-23T18:46:29.294Z,86.93
2023-02-23T18:48:57.745Z,87.01
2023-02-23T18:51:26.553Z,87.24
2023-02-23T18:53:56.302Z,87.68
2023-02-23T18:56:35.744Z,87.47
2023-02-23T18:59:04.481Z,87.84
2023-02-23T19:01:34.626Z,87.68
2023-02-23T19:04:04.617Z,87.73
2023-02-23T19:06:33.869Z,87.68
2023-02-23T19:09:05.660Z,87.85
2023-02-23T19:11:37.045Z,87.94
2023-02-23T19:14:09.925Z,87.64
2023-02-23T19:16:38.919Z,87.87
2023-02-23T19:19:08.517Z,87.43
2023-02-23T19:21:37.410Z,87.69
2023-02-23T19:24:08.891Z,87.83
2023-02-23T19:26:39.947Z,87.91
2023-02-23T19:29:08.524Z,87.70
2023-02-23T19:31:37.746Z,87.71
2023-02-23T19:34:08.819Z,87.77
2023-02-23T19:36:37.398Z,87.66
2023-02-23T19:39:10.515Z,87.74
2023-02-23T19:41:41.318Z,88.12
2023-02-23T19:44:10.983Z,87.72
2023-02-23T19:46:40.430Z,87.66
2023-02-23T19:49:08.868Z,87.50
2023-02-23T19:51:37.533Z,87.81
2023-02-23T19:54:07.560Z,87.75
2023-02-23T19:56:36.065Z,87.70
2023-02-23T19:59:06.564Z,87.63
2023-02-23T20:01:36.077Z,87.41
2023-02-23T20:04:06.567Z,86.74
2023-02-23T20:06:41.080Z,86.57
2023-02-23T20:09:09.626Z,86.27
2023-02-23T20:11:37.991Z,86.83
2023-02-23T20:14:08.282Z,85.84
2023-02-23T20:16:37.345Z,86.14
2023-02-23T20:19:06.639Z,86.22
2023-02-23T20:21:36.842Z,87.06
2023-02-23T20:24:06.567Z,87.26
2023-02-23T20:26:37.226Z,87.28
2023-02-23T20:29:11.076Z,87.84
2023-02-23T20:31:44.685Z,88.68
2023-02-23T20:34:14.232Z,88.46
2023-02-23T20:36:42.575Z,88.75
2023-02-23T20:39:11.428Z,88.77
2023-02-23T20:41:44.141Z,89.16
2023-02-23T20:44:15.493Z,88.58
2023-02-23T20:46:45.242Z,88.40
2023-02-23T20:49:14.705Z,88.20
2023-02-23T20:51:46.073Z,88.01
2023-02-23T20:54:15.998Z,87.97
2023-02-23T20:56:46.076Z,87.83
2023-02-23T20:59:16.125Z,87.94
2023-02-23T21:01:45.325Z,87.95
2023-02-23T21:04:14.139Z,88.00
2023-02-23T21:06:42.854Z,87.82
2023-02-23T21:09:17.976Z,87.67
2023-02-23T21:11:48.376Z,87.54
2023-02-23T21:14:18.861Z,87.46
2023-02-23T21:16:47.253Z,87.79
2023-02-23T21:19:18.353Z,88.26
2023-02-23T21:21:49.239Z,87.97
2023-02-23T21:24:19.592Z,87.69
2023-02-23T21:26:48.041Z,87.96
2023-02-23T21:29:18.538Z,88.04
2023-02-23T21:31:47.984Z,87.81
2023-02-23T21:34:19.725Z,86.53
2023-02-23T21:36:49.946Z,85.80
2023-02-23T21:39:18.412Z,85.66
2023-02-23T21:41:46.770Z,85.89
2023-02-23T21:44:15.598Z,85.50
2023-02-23T21:46:45.497Z,85.39
2023-02-23T21:49:13.949Z,85.45
2023-02-23T21:51:42.283Z,85.65
2023-02-23T21:54:10.689Z,86.47
2023-02-23T21:56:39.465Z,86.30
2023-02-23T21:59:09.234Z,86.60
2023-02-23T22:01:40.889Z,86.61
2023-02-23T22:04:14.659Z,86.34
2023-02-23T22:06:45.441Z,86.70
2023-02-23T22:09:15.769Z,86.74
2023-02-23T22:11:47.421Z,87.05
2023-02-23T22:14:18.117Z,86.72
2023-02-23T22:16:47.731Z,86.43
2023-02-23T22:19:18.977Z,87.12
2023-02-23T22:21:48.907Z,87.25
2023-02-23T22:24:18.256Z,87.42
2023-02-23T22:26:50.657Z,87.24
2023-02-23T22:29:19.131Z,87.20
2023-02-23T22:31:47.698Z,87.48
2023-02-23T22:34:18.335Z,88.04
2023-02-23T22:36:48.418Z,88.00
2023-02-23T22:39:18.342Z,88.22
2023-02-23T22:41:47.575Z,88.67
2023-02-23T22:44:18.805Z,88.68
2023-02-23T22:46:48.933Z,88.68
2023-02-23T22:49:20.035Z,88.63
2023-02-23T22:51:50.466Z,88.71
2023-02-23T22:54:20.500Z,88.36
2023-02-23T22:56:49.015Z,88.68
2023-02-23T22:59:20.492Z,88.82
2023-02-23T23:01:50.401Z,88.85
2023-02-23T23:04:22.085Z,89.14
2023-02-23T23:06:50.893Z,88.95
2023-02-23T23:09:21.133Z,88.68
2023-02-23T23:11:51.168Z,88.09
2023-02-23T23:14:20.360Z,87.90
2023-02-23T23:16:49.823Z,87.98
2023-02-23T23:19:24.181Z,87.93
2023-02-23T23:21:55.545Z,87.74
2023-02-23T23:24:25.492Z,87.90
2023-02-23T23:26:59.454Z,87.75
2023-02-23T23:29:30.650Z,87.24
2023-02-23T23:31:59.339Z,87.21
2023-02-23T23:34:30.039Z,87.49
2023-02-23T23:36:58.566Z,87.65
2023-02-23T23:39:26.983Z,88.39
2023-02-23T23:41:55.778Z,89.09
2023-02-23T23:44:29.325Z,90.34
2023-02-23T23:46:59.742Z,91.06
2023-02-23T23:49:30.247Z,91.01
2023-02-23T23:51:58.668Z,91.12
2023-02-23T23:54:30.879Z,91.73
2023-02-23T23:57:01.481Z,91.98
2023-02-23T23:59:32.076Z,91.88
